createdAt,value
2018-10-18T00:00:49.250Z,101447.64
2018-10-18T00:03:16.521Z,101445.88
2018-10-18T00:05:43.657Z,101446.78
2018-10-18T00:08:10.844Z,101447.67
2018-10-18T00:10:38.103Z,101446.80
2018-10-18T00:13:05.276Z,101449.00
2018-10-18T00:15:32.466Z,101444.19
2018-10-18T00:17:59.682Z,101437.62
2018-10-18T00:20:26.853Z,101436.30
2018-10-18T00:22:54.009Z,101437.64
2018-10-18T00:25:21.397Z,101439.38
2018-10-18T00:27:48.571Z,101442.02
2018-10-18T00:30:15.964Z,101445.06
2018-10-18T00:32:43.950Z,101442.45
2018-10-18T00:35:11.488Z,101440.72
2018-10-18T00:37:39.052Z,101443.77
2018-10-18T00:40:06.954Z,101445.52
2018-10-18T00:42:34.140Z,101448.13
2018-10-18T00:45:01.302Z,101450.77
2018-10-18T00:47:28.495Z,101451.18
2018-10-18T00:49:55.702Z,101452.94
2018-10-18T00:52:23.890Z,101453.83
2018-10-18T00:54:51.164Z,101445.08
2018-10-18T00:57:18.356Z,101450.31
2018-10-18T00:59:45.520Z,101444.66
2018-10-18T01:02:12.891Z,101446.83
2018-10-18T01:04:40.018Z,101442.03
2018-10-18T01:07:07.190Z,101445.08
2018-10-18T01:09:34.474Z,101448.59
2018-10-18T01:12:01.675Z,101440.29
2018-10-18T01:14:28.839Z,101444.64
2018-10-18T01:17:01.891Z,101439.84
2018-10-18T01:19:29.402Z,101448.59
2018-10-18T01:21:56.552Z,101443.34
2018-10-18T01:24:23.817Z,101436.81
2018-10-18T01:26:51.019Z,101432.42
2018-10-18T01:29:18.187Z,101438.97
2018-10-18T01:31:45.514Z,101444.21
2018-10-18T01:34:13.006Z,101438.55
2018-10-18T01:36:40.167Z,101445.52
2018-10-18T01:39:07.635Z,101444.63
2018-10-18T01:41:34.805Z,101442.02
2018-10-18T01:44:02.021Z,101435.48
2018-10-18T01:46:29.226Z,101438.09
2018-10-18T01:48:56.381Z,101431.55
2018-10-18T01:51:23.529Z,101425.88
2018-10-18T01:53:50.737Z,101421.52
2018-10-18T01:56:17.902Z,101420.23
2018-10-18T01:58:45.042Z,101425.44
2018-10-18T02:01:12.834Z,101428.94
2018-10-18T02:03:39.985Z,101423.25
2018-10-18T02:06:07.368Z,101428.05
2018-10-18T02:08:39.938Z,101421.95
2018-10-18T02:11:07.442Z,101425.41
2018-10-18T02:13:34.675Z,101414.52
2018-10-18T02:16:01.869Z,101418.02
2018-10-18T02:18:29.025Z,101420.63
2018-10-18T02:20:56.255Z,101421.50
2018-10-18T02:23:23.557Z,101419.30
2018-10-18T02:25:50.745Z,101419.75
2018-10-18T02:28:17.901Z,101422.81
2018-10-18T02:30:45.106Z,101422.80
2018-10-18T02:33:12.272Z,101419.31
2018-10-18T02:35:39.437Z,101417.13
2018-10-18T02:38:06.821Z,101413.62
2018-10-18T02:40:34.541Z,101416.27
2018-10-18T02:43:01.727Z,101414.94
2018-10-18T02:45:29.316Z,101419.77
2018-10-18T02:47:56.479Z,101418.02
2018-10-18T02:50:23.675Z,101420.63
2018-10-18T02:52:51.056Z,101413.20
2018-10-18T02:55:18.205Z,101414.06
2018-10-18T02:57:45.383Z,101412.75
2018-10-18T03:00:12.661Z,101413.19
2018-10-18T03:02:39.815Z,101414.05
2018-10-18T03:05:07.133Z,101414.95
2018-10-18T03:07:34.350Z,101418.89
2018-10-18T03:10:01.578Z,101424.97
2018-10-18T03:12:28.787Z,101421.94
2018-10-18T03:14:56.084Z,101419.30
2018-10-18T03:17:23.261Z,101414.93
2018-10-18T03:19:50.871Z,101413.58
2018-10-18T03:22:18.120Z,101417.52
2018-10-18T03:24:45.301Z,101414.48
2018-10-18T03:27:12.465Z,101420.58
2018-10-18T03:29:39.669Z,101417.05
2018-10-18T03:32:06.914Z,101425.77
2018-10-18T03:34:34.085Z,101429.77
2018-10-18T03:37:01.382Z,101426.73
2018-10-18T03:39:28.581Z,101422.34
2018-10-18T03:41:55.834Z,101422.33
2018-10-18T03:44:23.854Z,101424.06
2018-10-18T03:46:51.025Z,101429.28
2018-10-18T03:49:18.205Z,101427.96
2018-10-18T03:51:45.505Z,101432.30
2018-10-18T03:54:12.737Z,101426.56
2018-10-18T03:56:39.842Z,101430.03
2018-10-18T03:59:07.470Z,101429.63
2018-10-18T04:01:34.682Z,101441.84
2018-10-18T04:04:01.865Z,101437.04
2018-10-18T04:06:29.064Z,101439.17
2018-10-18T04:08:56.216Z,101438.69
2018-10-18T04:11:23.419Z,101444.78
2018-10-18T04:13:50.666Z,101440.83
2018-10-18T04:16:17.898Z,101445.23
2018-10-18T04:18:45.046Z,101438.64
2018-10-18T04:21:12.374Z,101440.02
2018-10-18T04:23:39.562Z,101435.60
2018-10-18T04:26:06.726Z,101441.63
2018-10-18T04:28:33.943Z,101442.93
2018-10-18T04:31:02.315Z,101445.12
2018-10-18T04:33:29.541Z,101442.06
2018-10-18T04:35:56.832Z,101440.76
2018-10-18T04:38:24.013Z,101443.40
2018-10-18T04:40:51.239Z,101443.40
2018-10-18T04:43:18.532Z,101446.49
2018-10-18T04:45:45.701Z,101443.42
2018-10-18T04:48:13.293Z,101437.72
2018-10-18T04:50:40.665Z,101443.37
2018-10-18T04:53:08.009Z,101439.42
2018-10-18T04:55:35.198Z,101445.09
2018-10-18T04:58:02.434Z,101445.50
2018-10-18T05:00:29.648Z,101448.55
2018-10-18T05:02:56.953Z,101449.44
2018-10-18T05:05:36.623Z,101451.16
2018-10-18T05:08:03.902Z,101451.13
2018-10-18T05:10:31.089Z,101444.18
2018-10-18T05:12:58.366Z,101449.52
2018-10-18T05:15:25.616Z,101459.55
2018-10-18T05:17:52.836Z,101455.14
2018-10-18T05:20:20.126Z,101468.20
2018-10-18T05:22:47.314Z,101466.02
2018-10-18T05:25:14.544Z,101469.00
2018-10-18T05:27:41.796Z,101467.27
2018-10-18T05:30:09.000Z,101468.59
2018-10-18T05:32:36.127Z,101472.45
2018-10-18T05:35:03.280Z,101471.99
2018-10-18T05:37:30.447Z,101480.78
2018-10-18T05:39:57.545Z,101485.68
2018-10-18T05:42:24.679Z,101493.05
2018-10-18T05:44:51.831Z,101492.14
2018-10-18T05:47:19.298Z,101496.02
2018-10-18T05:49:46.421Z,101496.02
2018-10-18T05:52:13.508Z,101497.31
2018-10-18T05:54:40.613Z,101497.68
2018-10-18T05:57:07.783Z,101501.59
2018-10-18T05:59:34.877Z,101504.72
2018-10-18T06:02:01.972Z,101511.69
2018-10-18T06:04:29.168Z,101515.22
2018-10-18T06:06:56.656Z,101519.68
2018-10-18T06:09:28.096Z,101525.38
2018-10-18T06:11:55.262Z,101531.05
2018-10-18T06:14:22.462Z,101528.87
2018-10-18T06:16:49.572Z,101529.30
2018-10-18T06:19:16.834Z,101538.92
2018-10-18T06:21:44.371Z,101531.95
2018-10-18T06:24:11.484Z,101535.86
2018-10-18T06:26:38.651Z,101541.11
2018-10-18T06:29:05.802Z,101541.62
2018-10-18T06:31:32.905Z,101542.08
2018-10-18T06:34:00.034Z,101543.00
2018-10-18T06:36:27.143Z,101537.75
2018-10-18T06:38:54.247Z,101536.48
2018-10-18T06:41:21.444Z,101536.15
2018-10-18T06:43:48.544Z,101537.95
2018-10-18T06:46:15.703Z,101540.61
2018-10-18T06:48:42.944Z,101536.23
2018-10-18T06:51:10.483Z,101544.59
2018-10-18T06:53:37.911Z,101537.61
2018-10-18T06:56:05.096Z,101534.98
2018-10-18T06:58:32.194Z,101534.56
2018-10-18T07:00:59.295Z,101541.14
2018-10-18T07:03:26.434Z,101548.14
2018-10-18T07:05:53.530Z,101549.88
2018-10-18T07:08:20.600Z,101539.80
2018-10-18T07:10:47.804Z,101547.67
2018-10-18T07:13:14.951Z,101553.31
2018-10-18T07:15:42.034Z,101544.98
2018-10-18T07:18:09.195Z,101541.39
2018-10-18T07:20:36.263Z,101537.31
2018-10-18T07:23:03.403Z,101538.84
2018-10-18T07:25:30.604Z,101540.02
2018-10-18T07:27:57.712Z,101540.19
2018-10-18T07:30:24.792Z,101547.28
2018-10-18T07:32:51.960Z,101541.20
2018-10-18T07:35:19.100Z,101539.20
2018-10-18T07:37:46.189Z,101534.48
2018-10-18T07:40:14.627Z,101542.38
2018-10-18T07:42:41.745Z,101537.48
2018-10-18T07:45:09.490Z,101540.03
2018-10-18T07:47:36.692Z,101546.23
2018-10-18T07:50:04.113Z,101547.77
2018-10-18T07:52:31.215Z,101545.87
2018-10-18T07:54:58.357Z,101550.73
2018-10-18T07:57:25.463Z,101553.13
2018-10-18T07:59:52.587Z,101555.13
2018-10-18T08:02:19.739Z,101562.56
2018-10-18T08:04:46.833Z,101563.05
2018-10-18T08:07:14.049Z,101555.95
2018-10-18T08:09:41.179Z,101560.73
2018-10-18T08:12:08.269Z,101567.28
2018-10-18T08:14:35.366Z,101560.14
2018-10-18T08:17:02.595Z,101566.91
2018-10-18T08:19:29.640Z,101561.13
2018-10-18T08:21:56.756Z,101562.50
2018-10-18T08:24:24.112Z,101565.25
2018-10-18T08:26:51.196Z,101565.55
2018-10-18T08:29:18.346Z,101571.47
2018-10-18T08:31:45.711Z,101567.06
2018-10-18T08:34:12.897Z,101563.81
2018-10-18T08:36:40.061Z,101564.42
2018-10-18T08:39:08.770Z,101560.74
2018-10-18T08:41:35.984Z,101561.64
2018-10-18T08:44:03.205Z,101559.73
2018-10-18T08:46:30.433Z,101560.69
2018-10-18T08:48:57.660Z,101562.43
2018-10-18T08:51:24.799Z,101556.81
2018-10-18T08:53:51.975Z,101556.19
2018-10-18T08:56:19.172Z,101555.13
2018-10-18T08:58:46.313Z,101553.53
2018-10-18T09:01:13.620Z,101551.38
2018-10-18T09:03:40.714Z,101547.95
2018-10-18T09:06:07.861Z,101553.27
2018-10-18T09:08:35.062Z,101552.43
2018-10-18T09:11:02.221Z,101554.73
2018-10-18T09:13:29.347Z,101550.40
2018-10-18T09:15:56.649Z,101545.16
2018-10-18T09:18:23.769Z,101538.09
2018-10-18T09:20:50.924Z,101537.90
2018-10-18T09:23:18.097Z,101534.73
2018-10-18T09:25:45.227Z,101539.97
2018-10-18T09:28:12.383Z,101544.39
2018-10-18T09:30:39.580Z,101547.00
2018-10-18T09:33:06.820Z,101553.42
2018-10-18T09:35:33.967Z,101553.16
2018-10-18T09:38:01.216Z,101554.58
2018-10-18T09:40:28.365Z,101552.84
2018-10-18T09:42:58.553Z,101548.19
2018-10-18T09:45:26.000Z,101554.51
2018-10-18T09:47:53.124Z,101551.84
2018-10-18T09:50:20.353Z,101557.79
2018-10-18T09:52:47.558Z,101554.53
2018-10-18T09:55:14.765Z,101550.14
2018-10-18T09:57:41.908Z,101549.63
2018-10-18T10:00:14.804Z,101554.63
2018-10-18T10:02:47.581Z,101554.22
2018-10-18T10:05:14.865Z,101560.20
2018-10-18T10:07:42.010Z,101567.14
2018-10-18T10:10:09.193Z,101563.95
2018-10-18T10:12:36.362Z,101562.59
2018-10-18T10:15:04.247Z,101571.67
2018-10-18T10:17:31.451Z,101569.01
2018-10-18T10:19:58.613Z,101565.59
2018-10-18T10:22:25.758Z,101558.11
2018-10-18T10:24:52.944Z,101560.19
2018-10-18T10:27:20.148Z,101557.66
2018-10-18T10:29:47.292Z,101563.13
2018-10-18T10:32:14.460Z,101563.27
2018-10-18T10:34:41.664Z,101567.20
2018-10-18T10:37:08.857Z,101567.72
2018-10-18T10:39:36.030Z,101568.70
2018-10-18T10:42:03.326Z,101573.00
2018-10-18T10:44:30.508Z,101576.32
2018-10-18T10:46:57.645Z,101573.69
2018-10-18T10:49:24.933Z,101572.34
2018-10-18T10:51:52.182Z,101571.29
2018-10-18T10:54:19.353Z,101570.96
2018-10-18T10:56:46.554Z,101573.86
2018-10-18T10:59:15.684Z,101572.66
2018-10-18T11:01:42.799Z,101576.30
2018-10-18T11:04:10.037Z,101580.95
2018-10-18T11:06:37.218Z,101582.61
2018-10-18T11:09:06.544Z,101579.61
2018-10-18T11:11:33.783Z,101582.48
2018-10-18T11:14:00.929Z,101584.28
2018-10-18T11:16:28.050Z,101582.86
2018-10-18T11:18:55.290Z,101590.39
2018-10-18T11:21:22.466Z,101592.50
2018-10-18T11:23:49.585Z,101603.39
2018-10-18T11:26:16.810Z,101592.52
2018-10-18T11:28:43.884Z,101596.80
2018-10-18T11:31:11.021Z,101603.37
2018-10-18T11:33:38.320Z,101605.59
2018-10-18T11:36:05.502Z,101604.24
2018-10-18T11:38:33.137Z,101615.05
2018-10-18T11:41:00.583Z,101607.38
2018-10-18T11:43:27.764Z,101610.16
2018-10-18T11:45:55.553Z,101610.90
2018-10-18T11:48:22.882Z,101604.66
2018-10-18T11:50:50.015Z,101600.73
2018-10-18T11:53:17.190Z,101594.49
2018-10-18T11:55:44.400Z,101600.63
2018-10-18T11:58:12.175Z,101594.12
2018-10-18T12:00:39.532Z,101590.09
2018-10-18T12:03:06.722Z,101587.06
2018-10-18T12:05:33.862Z,101580.44
2018-10-18T12:08:01.066Z,101589.41
2018-10-18T12:10:28.233Z,101591.23
2018-10-18T12:12:55.349Z,101590.14
2018-10-18T12:15:22.534Z,101585.83
2018-10-18T12:17:49.714Z,101586.69
2018-10-18T12:20:17.443Z,101586.43
2018-10-18T12:22:44.573Z,101587.73
2018-10-18T12:25:12.398Z,101576.40
2018-10-18T12:27:39.615Z,101575.80
2018-10-18T12:30:07.409Z,101576.20
2018-10-18T12:32:34.726Z,101581.20
2018-10-18T12:35:01.883Z,101584.43
2018-10-18T12:37:29.006Z,101587.13
2018-10-18T12:39:56.258Z,101589.02
2018-10-18T12:42:23.448Z,101587.77
2018-10-18T12:44:50.689Z,101582.92
2018-10-18T12:47:17.868Z,101584.50
2018-10-18T12:49:44.987Z,101592.30
2018-10-18T12:52:13.352Z,101599.25
2018-10-18T12:54:40.735Z,101602.94
2018-10-18T12:57:09.513Z,101600.23
2018-10-18T12:59:36.737Z,101603.09
2018-10-18T13:02:04.048Z,101607.30
2018-10-18T13:04:31.141Z,101603.45
2018-10-18T13:06:58.469Z,101609.29
2018-10-18T13:09:26.284Z,101607.02
2018-10-18T13:11:53.503Z,101603.86
2018-10-18T13:14:20.596Z,101605.64
2018-10-18T13:16:47.837Z,101603.36
2018-10-18T13:19:15.003Z,101600.63
2018-10-18T13:21:42.158Z,101600.13
2018-10-18T13:24:09.364Z,101605.80
2018-10-18T13:26:36.983Z,101606.89
2018-10-18T13:29:04.486Z,101613.36
2018-10-18T13:31:31.767Z,101611.78
2018-10-18T13:33:58.928Z,101605.61
2018-10-18T13:36:26.054Z,101601.04
2018-10-18T13:38:53.386Z,101613.03
2018-10-18T13:41:20.500Z,101605.31
2018-10-18T13:43:47.628Z,101607.97
2018-10-18T13:46:14.851Z,101621.84
2018-10-18T13:48:42.092Z,101627.67
2018-10-18T13:51:09.295Z,101614.23
2018-10-18T13:53:39.405Z,101625.02
2018-10-18T13:56:06.775Z,101620.74
2018-10-18T13:58:33.853Z,101616.42
2018-10-18T14:01:01.026Z,101615.29
2018-10-18T14:03:28.194Z,101620.59
2018-10-18T14:05:55.342Z,101613.47
2018-10-18T14:08:22.665Z,101627.22
2018-10-18T14:10:49.757Z,101630.40
2018-10-18T14:13:16.872Z,101630.44
2018-10-18T14:15:44.073Z,101626.41
2018-10-18T14:18:11.350Z,101633.52
2018-10-18T14:20:38.497Z,101628.05
2018-10-18T14:23:05.709Z,101626.45
2018-10-18T14:25:32.962Z,101628.51
2018-10-18T14:28:00.120Z,101625.75
2018-10-18T14:30:28.532Z,101626.20
2018-10-18T14:32:55.629Z,101630.13
2018-10-18T14:35:22.805Z,101628.20
2018-10-18T14:37:49.992Z,101622.30
2018-10-18T14:40:17.145Z,101619.72
2018-10-18T14:42:44.298Z,101623.77
2018-10-18T14:45:11.560Z,101626.16
2018-10-18T14:47:38.843Z,101628.05
2018-10-18T14:50:07.802Z,101625.93
2018-10-18T14:52:35.021Z,101626.31
2018-10-18T14:55:02.166Z,101624.64
2018-10-18T14:57:29.445Z,101627.97
2018-10-18T15:00:03.630Z,101626.05
2018-10-18T15:02:30.821Z,101630.73
2018-10-18T15:04:58.146Z,101625.75
2018-10-18T15:07:25.353Z,101634.00
2018-10-18T15:09:52.562Z,101636.16
2018-10-18T15:12:19.705Z,101632.44
2018-10-18T15:14:46.976Z,101637.94
2018-10-18T15:17:14.196Z,101633.05
2018-10-18T15:19:41.349Z,101635.81
2018-10-18T15:22:08.553Z,101640.39
2018-10-18T15:24:35.680Z,101637.06
2018-10-18T15:27:02.980Z,101631.53
2018-10-18T15:29:30.033Z,101635.92
2018-10-18T15:31:57.264Z,101642.33
2018-10-18T15:34:24.348Z,101640.39
2018-10-18T15:36:51.536Z,101639.48
2018-10-18T15:39:18.893Z,101642.16
2018-10-18T15:41:45.904Z,101641.64
2018-10-18T15:44:13.263Z,101643.42
2018-10-18T15:46:40.368Z,101642.48
2018-10-18T15:49:07.968Z,101641.26
2018-10-18T15:51:35.648Z,101639.41
2018-10-18T15:54:02.856Z,101639.97
2018-10-18T15:56:30.049Z,101642.06
2018-10-18T15:58:57.398Z,101649.42
2018-10-18T16:01:24.542Z,101641.48
2018-10-18T16:03:51.681Z,101645.70
2018-10-18T16:06:18.944Z,101653.33
2018-10-18T16:08:46.203Z,101655.59
2018-10-18T16:11:13.404Z,101659.12
2018-10-18T16:13:40.533Z,101664.84
2018-10-18T16:16:07.923Z,101661.73
2018-10-18T16:18:35.086Z,101668.22
2018-10-18T16:21:02.425Z,101663.13
2018-10-18T16:23:29.579Z,101661.18
2018-10-18T16:25:56.820Z,101655.01
2018-10-18T16:28:23.935Z,101657.20
2018-10-18T16:30:51.085Z,101669.48
2018-10-18T16:33:18.474Z,101674.43
2018-10-18T16:35:45.683Z,101678.41
2018-10-18T16:38:12.900Z,101679.94
2018-10-18T16:40:40.225Z,101683.56
2018-10-18T16:43:07.657Z,101675.92
2018-10-18T16:45:34.861Z,101682.24
2018-10-18T16:48:02.487Z,101686.04
2018-10-18T16:50:29.740Z,101685.38
2018-10-18T16:52:56.963Z,101685.86
2018-10-18T16:55:24.172Z,101696.98
2018-10-18T16:57:51.449Z,101701.17
2018-10-18T17:00:19.109Z,101703.68
2018-10-18T17:02:46.582Z,101704.84
2018-10-18T17:05:13.840Z,101710.31
2018-10-18T17:07:40.987Z,101709.13
2018-10-18T17:10:08.251Z,101712.72
2018-10-18T17:12:35.365Z,101708.12
2018-10-18T17:15:02.545Z,101715.62
2018-10-18T17:17:30.566Z,101715.48
2018-10-18T17:19:57.843Z,101718.74
2018-10-18T17:22:24.979Z,101720.48
2018-10-18T17:24:52.256Z,101717.52
2018-10-18T17:27:20.043Z,101711.54
2018-10-18T17:29:47.213Z,101717.10
2018-10-18T17:32:15.004Z,101720.33
2018-10-18T17:34:42.277Z,101722.40
2018-10-18T17:37:09.491Z,101719.29
2018-10-18T17:39:36.622Z,101724.44
2018-10-18T17:42:04.149Z,101727.48
2018-10-18T17:44:31.330Z,101730.94
2018-10-18T17:46:58.516Z,101726.55
2018-10-18T17:49:25.796Z,101724.92
2018-10-18T17:51:53.064Z,101731.53
2018-10-18T17:54:20.331Z,101728.20
2018-10-18T17:56:47.557Z,101733.38
2018-10-18T17:59:14.791Z,101735.48
2018-10-18T18:01:42.082Z,101736.83
2018-10-18T18:04:09.318Z,101736.92
2018-10-18T18:06:36.588Z,101736.11
2018-10-18T18:09:04.634Z,101741.22
2018-10-18T18:11:31.882Z,101735.23
2018-10-18T18:13:59.056Z,101742.61
2018-10-18T18:16:26.344Z,101747.48
2018-10-18T18:18:53.523Z,101745.63
2018-10-18T18:21:20.658Z,101755.09
2018-10-18T18:23:47.774Z,101756.87
2018-10-18T18:26:15.057Z,101758.89
2018-10-18T18:28:42.223Z,101764.33
2018-10-18T18:31:09.410Z,101764.60
2018-10-18T18:33:36.631Z,101766.52
2018-10-18T18:36:04.161Z,101762.13
2018-10-18T18:38:31.308Z,101765.70
2018-10-18T18:40:58.490Z,101769.77
2018-10-18T18:43:25.657Z,101778.06
2018-10-18T18:45:53.834Z,101787.11
2018-10-18T18:48:21.132Z,101782.63
2018-10-18T18:50:48.380Z,101787.67
2018-10-18T18:53:15.532Z,101789.28
2018-10-18T18:55:42.719Z,101795.02
2018-10-18T18:58:09.896Z,101796.48
2018-10-18T19:00:37.058Z,101794.27
2018-10-18T19:03:04.928Z,101805.83
2018-10-18T19:05:31.985Z,101798.70
2018-10-18T19:07:59.136Z,101801.35
2018-10-18T19:10:26.324Z,101801.69
2018-10-18T19:12:53.457Z,101806.22
2018-10-18T19:15:20.705Z,101810.92
2018-10-18T19:17:47.908Z,101815.91
2018-10-18T19:20:15.068Z,101813.73
2018-10-18T19:22:42.307Z,101823.23
2018-10-18T19:25:09.549Z,101824.70
2018-10-18T19:27:37.389Z,101824.59
2018-10-18T19:30:06.376Z,101829.03
2018-10-18T19:32:33.560Z,101833.37
2018-10-18T19:35:01.378Z,101832.92
2018-10-18T19:37:28.543Z,101827.73
2018-10-18T19:39:55.914Z,101830.25
2018-10-18T19:42:24.975Z,101824.42
2018-10-18T19:44:52.454Z,101828.11
2018-10-18T19:47:19.740Z,101836.92
2018-10-18T19:49:46.905Z,101836.02
2018-10-18T19:52:14.124Z,101832.66
2018-10-18T19:54:42.509Z,101832.58
2018-10-18T19:57:09.851Z,101835.36
2018-10-18T19:59:37.920Z,101841.25
2018-10-18T20:02:05.886Z,101842.98
2018-10-18T20:04:34.117Z,101845.20
2018-10-18T20:07:01.241Z,101847.94
2018-10-18T20:09:28.538Z,101846.50
2018-10-18T20:11:58.173Z,101853.64
2018-10-18T20:14:26.330Z,101856.21
2018-10-18T20:16:53.929Z,101853.72
2018-10-18T20:19:21.073Z,101855.78
2018-10-18T20:21:48.217Z,101859.33
2018-10-18T20:24:15.438Z,101866.55
2018-10-18T20:26:42.612Z,101867.67
2018-10-18T20:29:09.835Z,101872.56
2018-10-18T20:31:37.070Z,101872.18
2018-10-18T20:34:04.585Z,101866.44
2018-10-18T20:36:31.744Z,101869.34
2018-10-18T20:38:59.011Z,101860.98
2018-10-18T20:41:26.797Z,101865.48
2018-10-18T20:43:54.144Z,101868.77
2018-10-18T20:46:21.487Z,101865.89
2018-10-18T20:48:48.620Z,101860.59
2018-10-18T20:51:17.290Z,101862.22
2018-10-18T20:53:44.548Z,101858.33
2018-10-18T20:56:11.673Z,101870.38
2018-10-18T20:58:39.181Z,101863.67
2018-10-18T21:01:06.538Z,101870.00
2018-10-18T21:03:33.676Z,101878.52
2018-10-18T21:06:01.001Z,101880.52
2018-10-18T21:08:28.636Z,101880.98
2018-10-18T21:10:56.069Z,101886.31
2018-10-18T21:13:23.340Z,101882.52
2018-10-18T21:15:50.612Z,101885.30
2018-10-18T21:18:17.761Z,101881.36
2018-10-18T21:20:44.913Z,101884.83
2018-10-18T21:23:12.247Z,101890.61
2018-10-18T21:25:39.352Z,101887.64
2018-10-18T21:28:06.498Z,101885.64
2018-10-18T21:30:33.769Z,101881.76
2018-10-18T21:33:00.978Z,101894.49
2018-10-18T21:35:28.153Z,101897.63
2018-10-18T21:37:55.314Z,101901.17
2018-10-18T21:40:22.445Z,101902.94
2018-10-18T21:42:49.591Z,101904.98
2018-10-18T21:45:17.218Z,101903.34
2018-10-18T21:47:44.329Z,101900.80
2018-10-18T21:50:11.448Z,101907.50
2018-10-18T21:52:38.611Z,101906.25
2018-10-18T21:55:06.711Z,101907.25
2018-10-18T21:57:33.885Z,101909.96
2018-10-18T22:00:01.098Z,101910.14
2018-10-18T22:02:28.227Z,101906.68
2018-10-18T22:04:55.475Z,101911.48
2018-10-18T22:07:22.872Z,101913.58
2018-10-18T22:09:50.000Z,101917.12
2018-10-18T22:12:17.166Z,101907.48
2018-10-18T22:14:44.433Z,101908.80
2018-10-18T22:17:11.700Z,101909.36
2018-10-18T22:19:38.834Z,101915.22
2018-10-18T22:22:06.100Z,101913.78
2018-10-18T22:24:33.232Z,101912.45
2018-10-18T22:27:00.479Z,101912.30
2018-10-18T22:29:27.640Z,101908.31
2018-10-18T22:31:54.779Z,101915.06
2018-10-18T22:34:21.905Z,101910.41
2018-10-18T22:36:49.238Z,101909.36
2018-10-18T22:39:17.321Z,101911.80
2018-10-18T22:41:44.452Z,101912.63
2018-10-18T22:44:11.655Z,101912.61
2018-10-18T22:46:38.798Z,101910.44
2018-10-18T22:49:05.916Z,101913.95
2018-10-18T22:51:33.105Z,101916.64
2018-10-18T22:54:00.261Z,101914.79
2018-10-18T22:56:27.432Z,101912.42
2018-10-18T22:58:54.664Z,101911.03
2018-10-18T23:01:21.781Z,101916.41
2018-10-18T23:03:48.917Z,101916.84
2018-10-18T23:06:16.115Z,101910.09
2018-10-18T23:08:43.314Z,101912.42
2018-10-18T23:11:10.493Z,101914.20
2018-10-18T23:13:37.757Z,101916.41
2018-10-18T23:16:04.946Z,101914.34
2018-10-18T23:18:32.094Z,101912.80
2018-10-18T23:20:59.313Z,101913.02
2018-10-18T23:23:26.434Z,101915.52
2018-10-18T23:25:53.568Z,101918.30
2018-10-18T23:28:20.768Z,101920.73
2018-10-18T23:30:47.909Z,101919.55
2018-10-18T23:33:15.045Z,101918.22
2018-10-18T23:35:42.224Z,101926.70
2018-10-18T23:38:09.359Z,101925.05
2018-10-18T23:40:36.473Z,101928.21
2018-10-18T23:43:03.703Z,101930.05
2018-10-18T23:45:30.827Z,101927.83
2018-10-18T23:47:57.970Z,101932.70
2018-10-18T23:50:25.164Z,101927.34
2018-10-18T23:52:52.324Z,101931.05
2018-10-18T23:55:19.476Z,101928.54
2018-10-18T23:57:46.667Z,101931.93
